Time;durP1;ratioP1;P1;durP2;ratioP2;P2;SDS_P1;SDS_P2;PMS_P1;PMS_P2;Temp;Humidity;BMP_temperature;BMP_pressure;BME280_temperature;BME280_humidity;BME280_pressure;Samples;Min_cycle;Max_cycle;Signal;HPM_P1;HPM_P2
2023/03/28 00:01:26;;;;;;;20.37;10.00;;;;;;;7.90;62.57;100826.00;5042528;28;20033;-65
2023/03/28 00:03:53;;;;;;;23.03;10.77;;;;;;;7.90;62.53;100826.00;5036558;28;20076;-65
2023/03/28 00:06:19;;;;;;;19.85;9.73;;;;;;;7.90;62.73;100825.16;5036623;28;20063;-66
2023/03/28 00:08:46;;;;;;;21.23;10.05;;;;;;;7.89;62.48;100823.38;5036130;28;20036;-66
2023/03/28 00:11:18;;;;;;;18.92;9.63;;;;;;;7.86;62.10;100823.34;5034808;28;20490;-65
2023/03/28 00:13:45;;;;;;;17.87;9.67;;;;;;;7.83;62.31;100812.78;5036514;28;20034;-65
2023/03/28 00:16:11;;;;;;;16.08;9.23;;;;;;;7.80;62.40;100812.72;5035057;28;20620;-65
2023/03/28 00:18:37;;;;;;;17.40;9.57;;;;;;;7.79;62.19;100810.97;5036580;28;20232;-65
2023/03/28 00:21:06;;;;;;;19.27;10.07;;;;;;;7.75;62.21;100810.06;5036191;28;20021;-66
2023/03/28 00:23:32;;;;;;;19.27;9.88;;;;;;;7.72;62.33;100818.75;5042734;28;20028;-65
2023/03/28 00:26:06;;;;;;;19.93;9.97;;;;;;;7.71;62.80;100822.22;5036251;28;20110;-66
2023/03/28 00:28:33;;;;;;;18.65;9.65;;;;;;;7.68;62.41;100816.94;5036110;28;20489;-65
2023/03/28 00:31:04;;;;;;;17.42;9.50;;;;;;;7.67;62.69;100824.75;5036323;28;20033;-65
2023/03/28 00:33:29;;;;;;;21.20;10.05;;;;;;;7.60;62.69;100824.66;5036365;28;20025;-65
2023/03/28 00:35:55;;;;;;;19.63;10.17;;;;;;;7.55;62.53;100823.69;5036286;28;20108;-65
2023/03/28 00:38:21;;;;;;;22.25;10.68;;;;;;;7.55;63.12;100822.81;5035980;28;20030;-65
2023/03/28 00:40:47;;;;;;;22.63;10.90;;;;;;;7.53;62.92;100829.75;5036024;28;20378;-65
2023/03/28 00:43:13;;;;;;;25.95;12.50;;;;;;;7.53;62.58;100824.50;5036024;28;20021;-65
2023/03/28 00:45:40;;;;;;;30.63;14.63;;;;;;;7.51;63.03;100826.22;5034777;28;20509;-65
2023/03/28 00:48:12;;;;;;;30.30;13.05;;;;;;;7.47;62.88;100825.28;5036108;28;20053;-65
2023/03/28 00:50:43;;;;;;;29.33;13.30;;;;;;;7.43;62.23;100818.22;5035554;28;20025;-65
2023/03/28 00:53:14;;;;;;;29.52;13.13;;;;;;;7.40;62.52;100816.44;5039404;28;20025;-65
2023/03/28 00:55:46;;;;;;;29.65;14.30;;;;;;;7.36;62.67;100812.03;5047005;28;20040;-65
2023/03/28 00:58:16;;;;;;;33.77;12.80;;;;;;;7.32;62.50;100818.94;5057587;28;20013;-66
2023/03/28 01:00:47;;;;;;;29.83;13.15;;;;;;;7.29;62.48;100812.75;5039739;28;20017;-65
2023/03/28 01:03:15;;;;;;;23.17;11.35;;;;;;;7.25;63.01;100822.31;5039303;28;20037;-65
2023/03/28 01:05:43;;;;;;;22.55;11.07;;;;;;;7.21;63.49;100814.34;5039650;28;20021;-65
2023/03/28 01:08:16;;;;;;;24.52;11.40;;;;;;;7.18;63.03;100812.53;5038972;28;20509;-65
2023/03/28 01:10:43;;;;;;;21.07;11.40;;;;;;;7.15;63.04;100813.38;5039118;28;20124;-65
2023/03/28 01:13:10;;;;;;;24.45;11.60;;;;;;;7.11;63.70;100806.28;5039247;28;20032;-65
2023/03/28 01:15:35;;;;;;;26.63;13.23;;;;;;;7.12;63.55;100808.09;5039430;28;20113;-65
2023/03/28 01:18:02;;;;;;;23.43;12.13;;;;;;;7.12;63.65;100808.09;5039113;28;20053;-65
2023/03/28 01:20:52;;;;;;;21.42;11.60;;;;;;;7.10;63.97;100804.53;5039404;28;20056;-65
2023/03/28 01:23:42;;;;;;;27.13;12.10;;;;;;;7.08;63.99;100808.00;5038665;28;20095;-65
2023/03/28 01:26:19;;;;;;;21.42;11.48;;;;;;;7.07;63.94;100799.25;5035582;28;20033;-65
2023/03/28 01:29:19;;;;;;;23.42;11.70;;;;;;;7.02;63.84;100806.13;5038805;28;20591;-65
2023/03/28 01:32:03;;;;;;;21.23;11.13;;;;;;;6.98;63.46;100799.06;5037671;28;20453;-65
2023/03/28 01:34:56;;;;;;;19.13;10.52;;;;;;;6.97;63.50;100799.94;5038903;28;20458;-65
2023/03/28 01:37:33;;;;;;;23.90;11.25;;;;;;;6.93;63.85;100795.50;5038551;28;20044;-65
2023/03/28 01:40:17;;;;;;;22.67;10.95;;;;;;;6.88;64.05;100801.53;5038647;28;20486;-65
2023/03/28 01:42:58;;;;;;;21.33;10.30;;;;;;;6.83;64.00;100799.66;5037520;28;20025;-65
2023/03/28 01:45:35;;;;;;;20.90;10.77;;;;;;;6.81;63.95;100804.00;5038689;28;20037;-65
2023/03/28 01:48:22;;;;;;;22.45;11.13;;;;;;;6.78;64.53;100796.94;5038727;28;20029;-65
2023/03/28 01:50:57;;;;;;;21.42;10.95;;;;;;;6.74;63.92;100793.38;5043279;28;20419;-65
2023/03/28 01:53:48;;;;;;;19.52;10.18;;;;;;;6.73;64.35;100782.88;5058304;28;20020;-65
2023/03/28 01:56:20;;;;;;;17.58;9.38;;;;;;;6.69;63.99;100784.56;5058664;28;20388;-65
2023/03/28 01:59:11;;;;;;;21.57;10.60;;;;;;;6.66;64.89;100786.25;5051698;28;20017;-65
2023/03/28 02:01:49;;;;;;;20.45;11.30;;;;;;;6.57;64.50;100781.69;5038112;28;20025;-65
2023/03/28 02:04:19;;;;;;;19.38;11.20;;;;;;;6.51;64.06;100769.38;5038288;28;20021;-65
2023/03/28 02:06:46;;;;;;;23.90;11.95;;;;;;;6.47;64.16;100767.53;5038211;28;20486;-65
2023/03/28 02:09:14;;;;;;;28.05;15.23;;;;;;;6.47;64.63;100770.16;5036720;28;20068;-65
2023/03/28 02:11:40;;;;;;;25.27;13.70;;;;;;;6.50;63.84;100764.09;5037809;28;20072;-65
2023/03/28 02:14:15;;;;;;;24.75;13.77;;;;;;;6.46;64.48;100750.06;5038401;28;20512;-65
2023/03/28 02:16:43;;;;;;;24.83;12.88;;;;;;;6.38;64.53;100756.84;5036879;28;20466;-65
2023/03/28 02:19:11;;;;;;;22.35;12.70;;;;;;;6.35;64.81;100748.94;5038008;28;20381;-65
2023/03/28 02:22:17;;;;;;;24.05;12.32;;;;;;;6.35;65.87;100738.50;5038043;28;20028;-65
2023/03/28 02:24:49;;;;;;;24.30;12.43;;;;;;;6.31;64.29;100737.56;5036456;28;20021;-65
2023/03/28 02:27:15;;;;;;;21.85;12.35;;;;;;;6.31;64.91;100733.19;5037913;28;20029;-65
2023/03/28 02:29:41;;;;;;;22.20;12.48;;;;;;;6.29;64.25;100729.66;5037560;28;20382;-65
2023/03/28 02:32:07;;;;;;;21.45;12.20;;;;;;;6.20;64.58;100719.03;5037995;28;20119;-65
2023/03/28 02:34:33;;;;;;;24.42;12.00;;;;;;;6.13;64.74;100718.00;5037905;28;20493;-65
2023/03/28 02:37:07;;;;;;;20.83;12.13;;;;;;;6.17;65.26;100713.75;5037480;28;20169;-65
2023/03/28 02:39:58;;;;;;;19.88;11.65;;;;;;;6.14;65.36;100708.41;5037754;28;20021;-65
2023/03/28 02:42:45;;;;;;;20.15;11.48;;;;;;;6.12;65.18;100710.13;5037640;28;20561;-65
2023/03/28 02:45:38;;;;;;;21.20;11.45;;;;;;;6.09;64.36;100708.34;5037386;28;20018;-65
2023/03/28 02:48:35;;;;;;;20.00;10.30;;;;;;;6.05;65.12;100709.13;5048427;28;20021;-65
2023/03/28 02:51:49;;;;;;;18.90;10.23;;;;;;;5.98;65.68;100710.69;5056102;28;20028;-65
2023/03/28 02:54:31;;;;;;;19.65;10.75;;;;;;;5.94;65.67;100705.34;5052365;28;20037;-65
2023/03/28 02:57:05;;;;;;;19.58;10.68;;;;;;;5.94;64.91;100710.56;5057153;28;20459;-65
2023/03/28 02:59:47;;;;;;;16.17;9.77;;;;;;;5.91;64.22;100710.50;5044657;28;20103;-65
2023/03/28 03:02:20;;;;;;;18.50;9.97;;;;;;;5.80;65.32;100712.88;5032680;28;20026;-65
2023/03/28 03:04:49;;;;;;;17.10;10.23;;;;;;;5.75;65.37;100711.06;5063613;28;20026;-65
2023/03/28 03:07:16;;;;;;;18.17;9.48;;;;;;;5.74;65.04;100711.91;5036852;28;20029;-65
2023/03/28 03:09:44;;;;;;;19.25;10.40;;;;;;;5.76;65.21;100717.16;5036776;28;20022;-65
2023/03/28 03:12:10;;;;;;;18.77;10.00;;;;;;;5.74;64.96;100724.06;5037250;28;20371;-65
2023/03/28 03:14:37;;;;;;;16.20;9.23;;;;;;;5.71;64.62;100722.28;5036924;28;20083;-65
2023/03/28 03:17:04;;;;;;;16.70;9.32;;;;;;;5.69;65.20;100726.59;5037064;28;20057;-65
2023/03/28 03:19:30;;;;;;;17.48;9.45;;;;;;;5.69;64.99;100726.59;5037008;28;20029;-65
2023/03/28 03:21:56;;;;;;;16.67;9.52;;;;;;;5.67;64.85;100728.28;5037083;28;20057;-65
2023/03/28 03:24:22;;;;;;;22.67;10.00;;;;;;;5.63;64.56;100729.03;5036540;28;20505;-65
2023/03/28 03:26:47;;;;;;;17.15;9.00;;;;;;;5.59;65.14;100716.75;5036920;28;20021;-65
2023/03/28 03:29:12;;;;;;;17.50;8.17;;;;;;;5.56;64.81;100714.06;5036441;28;20022;-65
2023/03/28 03:31:38;;;;;;;14.50;8.33;;;;;;;5.54;64.84;100714.03;5035442;28;20075;-65
2023/03/28 03:34:03;;;;;;;12.43;6.93;;;;;;;5.54;65.56;100721.00;5036861;28;20025;-65
2023/03/28 03:36:32;;;;;;;14.37;7.20;;;;;;;5.53;65.18;100717.50;5037041;28;20271;-65
2023/03/28 03:38:57;;;;;;;12.35;6.43;;;;;;;5.53;65.37;100707.03;5036410;28;20018;-65
2023/03/28 03:41:23;;;;;;;14.40;6.83;;;;;;;5.54;65.30;100710.56;5035435;28;20029;-65
2023/03/28 03:43:48;;;;;;;15.73;6.80;;;;;;;5.49;65.42;100714.78;5070105;28;20029;-65
2023/03/28 03:46:13;;;;;;;12.50;6.80;;;;;;;5.46;65.85;100716.47;5056709;28;20087;-65
2023/03/28 03:48:39;;;;;;;13.20;7.03;;;;;;;5.43;64.98;100713.81;5056502;28;20025;-65
2023/03/28 03:51:04;;;;;;;13.90;7.97;;;;;;;5.41;65.09;100717.22;5055198;28;20555;-65
2023/03/28 03:53:32;;;;;;;12.97;7.20;;;;;;;5.38;65.38;100723.22;5056190;28;20028;-65
2023/03/28 03:56:02;;;;;;;14.90;7.05;;;;;;;5.35;64.90;100717.94;5055301;28;20036;-65
2023/03/28 03:58:27;;;;;;;12.95;6.65;;;;;;;5.29;65.27;100721.25;5052322;28;20039;-65
2023/03/28 04:00:53;;;;;;;11.93;6.77;;;;;;;5.27;65.09;100712.50;5036662;28;20071;-65
2023/03/28 04:03:18;;;;;;;13.17;6.53;;;;;;;5.25;65.69;100718.56;5036474;28;20032;-65
2023/03/28 04:05:43;;;;;;;11.82;5.72;;;;;;;5.25;65.47;100723.78;5036900;28;20052;-65
2023/03/28 04:08:09;;;;;;;12.63;6.37;;;;;;;5.25;65.71;100721.16;5036177;28;20056;-65
2023/03/28 04:10:34;;;;;;;14.93;6.77;;;;;;;5.25;64.95;100723.78;5036427;28;20390;-65
2023/03/28 04:13:00;;;;;;;11.07;5.40;;;;;;;5.22;65.43;100715.88;5036474;28;20119;-65
2023/03/28 04:15:25;;;;;;;11.60;5.57;;;;;;;5.21;65.56;100714.97;5036704;28;20630;-65
2023/03/28 04:17:55;;;;;;;14.13;5.90;;;;;;;5.20;65.29;100720.19;5036413;28;20033;-65
2023/03/28 04:20:22;;;;;;;10.77;5.80;;;;;;;5.16;65.27;100714.84;5036655;28;20030;-65
2023/03/28 04:22:47;;;;;;;12.68;5.70;;;;;;;5.15;65.72;100707.00;5036144;28;20088;-65
2023/03/28 04:25:13;;;;;;;11.97;5.53;;;;;;;5.14;65.93;100708.72;5036797;28;20048;-64
2023/03/28 04:27:40;;;;;;;10.83;5.63;;;;;;;5.13;65.17;100704.34;5040111;28;20122;-65
2023/03/28 04:30:08;;;;;;;11.98;5.70;;;;;;;5.08;65.22;100705.94;5040393;28;20034;-65
2023/03/28 04:32:34;;;;;;;12.63;5.05;;;;;;;5.05;65.85;100698.06;5040142;28;20517;-65
2023/03/28 04:35:02;;;;;;;12.07;5.28;;;;;;;5.02;65.62;100695.38;5040203;28;20029;-65
2023/03/28 04:37:27;;;;;;;11.20;5.40;;;;;;;5.02;65.78;100703.19;5039967;28;20022;-64
2023/03/28 04:39:53;;;;;;;12.40;5.40;;;;;;;5.00;65.85;100699.66;5048288;28;20017;-65
2023/03/28 04:42:19;;;;;;;11.97;5.27;;;;;;;4.98;65.54;100698.75;5045720;28;20078;-65
2023/03/28 04:44:44;;;;;;;10.00;4.63;;;;;;;4.97;65.33;100700.47;5040171;28;20029;-65
2023/03/28 04:47:14;;;;;;;10.50;5.30;;;;;;;4.95;65.59;100703.88;5039950;28;20498;-65
2023/03/28 04:49:39;;;;;;;11.27;4.40;;;;;;;4.91;65.77;100712.47;5039983;28;20116;-65
2023/03/28 04:52:05;;;;;;;11.03;4.77;;;;;;;4.89;65.80;100709.81;5039844;28;20064;-65
2023/03/28 04:54:32;;;;;;;9.43;4.93;;;;;;;4.88;65.78;100716.75;5039807;28;20104;-65
2023/03/28 04:56:57;;;;;;;7.97;3.92;;;;;;;4.82;65.74;100714.00;5039699;28;20040;-64
2023/03/28 04:59:23;;;;;;;8.30;3.70;;;;;;;4.78;65.87;100719.06;5039844;28;20013;-65
2023/03/28 05:01:48;;;;;;;8.70;3.97;;;;;;;4.77;66.30;100722.53;5039728;28;20449;-65
2023/03/28 05:04:17;;;;;;;9.60;3.90;;;;;;;4.74;65.98;100720.75;5039716;28;20040;-65
2023/03/28 05:06:47;;;;;;;8.45;3.78;;;;;;;4.73;65.88;100734.63;5039609;28;20041;-64
2023/03/28 05:09:13;;;;;;;8.27;3.93;;;;;;;4.72;65.44;100732.84;5039325;28;20371;-65
2023/03/28 05:11:39;;;;;;;9.55;3.53;;;;;;;4.69;65.95;100728.44;5039253;28;20119;-65
2023/03/28 05:14:04;;;;;;;8.23;3.47;;;;;;;4.68;66.21;100730.97;5039859;28;20029;-65
2023/03/28 05:16:29;;;;;;;7.40;3.10;;;;;;;4.66;66.00;100730.97;5039444;28;20024;-65
2023/03/28 05:21:21;;;;;;;7.97;3.27;;;;;;;4.62;66.10;100738.66;5049803;28;20072;-65
2023/03/28 05:23:46;;;;;;;9.52;3.53;;;;;;;4.61;66.01;100745.59;5055976;28;20569;-65
2023/03/28 05:26:12;;;;;;;9.23;3.60;;;;;;;4.59;66.51;100745.53;5039213;28;20034;-64
2023/03/28 05:28:37;;;;;;;10.87;3.87;;;;;;;4.59;66.40;100747.28;5037638;28;20025;-65
2023/03/28 05:31:05;;;;;;;8.15;3.50;;;;;;;4.53;66.31;100745.38;5039031;28;20030;-65
2023/03/28 05:33:31;;;;;;;9.60;3.65;;;;;;;4.47;66.35;100747.81;5036044;28;20025;-64
2023/03/28 05:35:56;;;;;;;7.50;3.63;;;;;;;4.47;66.65;100749.53;5035847;28;20032;-64
2023/03/28 05:38:22;;;;;;;9.55;4.05;;;;;;;4.48;66.70;100754.81;5052895;28;20071;-64
2023/03/28 05:40:47;;;;;;;8.03;3.60;;;;;;;4.50;66.41;100749.63;5038906;28;20112;-65
2023/03/28 05:43:13;;;;;;;10.37;3.87;;;;;;;4.46;66.62;100746.03;5039171;28;20029;-65
2023/03/28 05:45:39;;;;;;;10.37;3.90;;;;;;;4.45;66.86;100736.44;5039013;28;20025;-65
2023/03/28 05:48:04;;;;;;;11.90;3.92;;;;;;;4.45;66.82;100742.56;5038953;28;20018;-65
2023/03/28 05:50:30;;;;;;;14.05;4.15;;;;;;;4.47;66.34;100742.59;5038792;28;20022;-65
2023/03/28 05:52:55;;;;;;;10.27;4.30;;;;;;;4.47;66.66;100737.41;5038049;28;20083;-65
2023/03/28 05:55:21;;;;;;;10.57;3.90;;;;;;;4.45;66.16;100742.56;5038904;28;20057;-65
2023/03/28 05:57:47;;;;;;;7.97;3.90;;;;;;;4.51;66.07;100749.69;5038539;28;20033;-66
2023/03/28 06:00:13;;;;;;;9.50;4.70;;;;;;;4.58;66.46;100749.00;5037321;28;20013;-65
2023/03/28 06:02:40;;;;;;;14.90;4.93;;;;;;;4.68;65.92;100736.19;5047872;28;20493;-64
2023/03/28 06:05:06;;;;;;;11.50;4.35;;;;;;;4.75;65.28;100738.16;5058273;28;20029;-64
2023/03/28 06:07:32;;;;;;;10.55;4.57;;;;;;;4.82;65.26;100742.69;5048763;28;20120;-65
2023/03/28 06:09:58;;;;;;;9.43;3.90;;;;;;;4.95;65.39;100741.28;5049163;28;20087;-64
2023/03/28 06:12:23;;;;;;;11.80;4.40;;;;;;;5.11;64.69;100742.56;5047519;28;20477;-65
2023/03/28 06:14:48;;;;;;;16.33;4.70;;;;;;;5.35;63.74;100748.41;5058224;28;20086;-64
2023/03/28 06:17:14;;;;;;;20.73;6.60;;;;;;;5.64;63.72;100743.00;5058579;28;20159;-64
2023/03/28 06:19:40;;;;;;;24.13;7.72;;;;;;;5.96;62.99;100745.47;5058288;28;20420;-65
2023/03/28 06:22:05;;;;;;;17.57;6.03;;;;;;;6.25;62.36;100730.47;5058012;28;20033;-64
2023/03/28 06:24:30;;;;;;;17.07;6.80;;;;;;;6.56;61.52;100731.09;5049067;28;20496;-65
2023/03/28 06:26:57;;;;;;;14.87;6.07;;;;;;;6.72;61.79;100728.78;5037657;28;20021;-64
2023/03/28 06:29:22;;;;;;;14.52;6.07;;;;;;;6.81;61.58;100739.41;5040921;28;20025;-65
2023/03/28 06:31:48;;;;;;;17.03;6.10;;;;;;;6.98;60.84;100724.00;5028186;28;20067;-65
2023/03/28 06:34:13;;;;;;;17.20;5.30;;;;;;;7.05;61.06;100727.63;5050142;28;20048;-65
2023/03/28 06:36:39;;;;;;;14.47;5.50;;;;;;;7.20;60.53;100720.91;5029337;28;20033;-64
2023/03/28 06:39:04;;;;;;;20.97;5.43;;;;;;;7.32;60.87;100722.00;5053143;28;20023;-64
2023/03/28 06:41:29;;;;;;;18.83;5.23;;;;;;;7.52;61.02;100738.88;5049978;28;20430;-65
2023/03/28 06:43:55;;;;;;;22.55;5.90;;;;;;;7.72;60.29;100737.47;5037286;28;20049;-64
2023/03/28 06:46:20;;;;;;;13.67;5.10;;;;;;;7.94;60.74;100732.53;5037646;28;20034;-65
2023/03/28 06:48:46;;;;;;;11.43;4.50;;;;;;;8.15;60.82;100745.06;5037369;28;20092;-64
2023/03/28 06:51:14;;;;;;;16.47;4.67;;;;;;;8.29;59.85;100742.63;5037416;28;20026;-64
2023/03/28 06:53:39;;;;;;;12.73;5.30;;;;;;;8.29;60.22;100737.38;5037435;28;20509;-64
2023/03/28 06:56:05;;;;;;;17.20;6.30;;;;;;;8.32;60.01;100734.81;5046685;28;20104;-64
2023/03/28 06:58:31;;;;;;;17.23;6.65;;;;;;;8.32;60.87;100733.91;5052558;28;20014;-64
2023/03/28 07:00:58;;;;;;;20.03;6.77;;;;;;;8.31;60.79;100743.53;5037161;28;20033;-64
2023/03/28 07:03:24;;;;;;;18.95;6.32;;;;;;;8.34;60.53;100747.94;5037329;28;20037;-64
2023/03/28 07:05:50;;;;;;;17.08;5.95;;;;;;;8.40;60.55;100750.63;5037423;28;20029;-64
2023/03/28 07:08:15;;;;;;;12.33;4.60;;;;;;;8.44;60.65;100755.09;5036865;28;20029;-64
2023/03/28 07:10:42;;;;;;;15.90;4.27;;;;;;;8.67;60.76;100758.88;5037198;28;20064;-64
2023/03/28 07:13:08;;;;;;;17.05;3.92;;;;;;;8.93;60.61;100771.41;5037174;28;20401;-64
2023/03/28 07:15:34;;;;;;;16.23;4.00;;;;;;;9.05;60.30;100769.78;5037193;28;20044;-64
2023/03/28 07:18:00;;;;;;;8.35;3.53;;;;;;;9.10;60.35;100767.22;5037212;28;20490;-64
2023/03/28 07:20:26;;;;;;;11.67;3.63;;;;;;;9.12;60.40;100760.25;5037532;28;20021;-64
2023/03/28 07:22:52;;;;;;;8.65;3.60;;;;;;;9.12;60.12;100760.25;5036780;28;20032;-64
2023/03/28 07:25:18;;;;;;;7.82;3.35;;;;;;;9.11;60.62;100753.22;5036913;28;20545;-65
2023/03/28 07:27:43;;;;;;;7.53;3.17;;;;;;;9.14;60.73;100753.25;5036623;28;20045;-64
2023/03/28 07:30:10;;;;;;;10.48;3.20;;;;;;;9.26;60.57;100747.22;5047377;28;20029;-65
2023/03/28 07:32:36;;;;;;;8.85;3.08;;;;;;;9.39;60.39;100748.22;5056827;28;20115;-64
2023/03/28 07:35:05;;;;;;;10.00;3.20;;;;;;;9.54;60.28;100746.59;5055646;28;20060;-64
2023/03/28 07:37:32;;;;;;;9.40;2.90;;;;;;;9.70;60.11;100753.72;5056622;28;20029;-65
2023/03/28 07:39:57;;;;;;;8.10;2.70;;;;;;;9.91;59.75;100755.63;5056690;28;20473;-65
2023/03/28 07:42:23;;;;;;;8.73;3.00;;;;;;;10.12;58.93;100740.81;5041690;28;20029;-64
2023/03/28 07:44:48;;;;;;;9.67;3.43;;;;;;;10.26;58.91;100733.03;5037095;28;20048;-64
2023/03/28 07:47:16;;;;;;;9.30;2.67;;;;;;;10.27;58.95;100728.63;5036715;28;20029;-65
2023/03/28 07:49:42;;;;;;;8.98;2.50;;;;;;;10.31;58.72;100720.75;5037007;28;20052;-65
2023/03/28 07:52:07;;;;;;;9.33;2.87;;;;;;;10.39;58.73;100730.44;5036606;28;20057;-65
2023/03/28 07:54:33;;;;;;;9.00;2.50;;;;;;;10.37;58.29;100734.81;5036752;28;20029;-65
2023/03/28 07:56:59;;;;;;;8.38;2.90;;;;;;;10.37;58.50;100735.72;5036590;28;20025;-65
2023/03/28 07:59:25;;;;;;;8.57;2.40;;;;;;;10.46;58.38;100737.50;5036850;28;20022;-65
2023/03/28 08:01:51;;;;;;;7.03;2.42;;;;;;;10.51;58.08;100732.25;5039653;28;20025;-65
2023/03/28 08:04:17;;;;;;;7.50;2.60;;;;;;;10.62;58.12;100734.06;5041118;28;20087;-64
2023/03/28 08:06:44;;;;;;;8.88;2.80;;;;;;;10.69;57.54;100734.06;5040797;28;20432;-65
2023/03/28 08:09:12;;;;;;;6.97;2.80;;;;;;;10.84;57.24;100736.75;5040582;28;20079;-65
2023/03/28 08:11:40;;;;;;;8.27;3.05;;;;;;;10.99;57.25;100729.78;5040633;28;20136;-65
2023/03/28 08:14:09;;;;;;;8.45;2.97;;;;;;;11.16;56.99;100729.78;5040715;28;20033;-65
2023/03/28 08:16:35;;;;;;;7.77;2.80;;;;;;;11.37;56.61;100730.69;5040720;28;20025;-65
2023/03/28 08:19:01;;;;;;;7.20;3.10;;;;;;;11.58;55.91;100735.06;5040634;28;20081;-65
2023/03/28 08:21:29;;;;;;;8.63;3.00;;;;;;;11.89;55.12;100738.56;5040276;28;20036;-65
2023/03/28 08:23:56;;;;;;;9.73;3.00;;;;;;;12.21;54.39;100736.75;5040067;28;20056;-65
2023/03/28 08:26:21;;;;;;;6.93;2.40;;;;;;;12.53;54.31;100738.38;5057210;28;20061;-65
2023/03/28 08:28:47;;;;;;;8.03;2.60;;;;;;;12.89;53.55;100746.97;5047599;28;20025;-65
2023/03/28 08:31:15;;;;;;;6.53;2.60;;;;;;;13.26;52.43;100745.00;5040271;28;20474;-65
2023/03/28 08:33:46;;;;;;;7.85;2.42;;;;;;;13.44;52.70;100751.94;5040336;28;20397;-65
2023/03/28 08:36:14;;;;;;;7.22;2.03;;;;;;;13.60;52.28;100750.94;5038742;28;20025;-65
2023/03/28 08:38:40;;;;;;;7.32;2.30;;;;;;;13.59;52.44;100748.28;5039975;28;20452;-65
2023/03/28 08:41:25;;;;;;;5.88;2.00;;;;;;;13.56;52.79;100762.44;5040036;28;20040;-66
2023/03/28 08:44:09;;;;;;;5.40;2.13;;;;;;;13.61;52.92;100759.72;5040096;28;20025;-65
2023/03/28 08:46:38;;;;;;;7.25;2.03;;;;;;;13.62;53.14;100759.72;5040373;28;20032;-65
2023/03/28 08:49:10;;;;;;;7.45;2.17;;;;;;;13.72;53.00;100763.16;5039845;28;20049;-65
2023/03/28 08:51:43;;;;;;;5.78;2.17;;;;;;;13.82;52.44;100761.31;5039797;28;20069;-65
2023/03/28 08:54:30;;;;;;;7.05;2.10;;;;;;;13.92;52.61;100754.16;5039881;28;20029;-65
2023/03/28 08:56:59;;;;;;;9.03;1.97;;;;;;;14.02;52.32;100742.56;5039882;28;20025;-65
2023/03/28 08:59:35;;;;;;;11.35;2.50;;;;;;;14.16;52.69;100755.66;5039926;28;20049;-66
2023/03/28 09:02:01;;;;;;;7.38;2.10;;;;;;;14.29;52.19;100752.88;5039750;28;20032;-66
2023/03/28 09:04:33;;;;;;;6.60;1.90;;;;;;;14.42;51.93;100756.28;5040034;28;20436;-65
2023/03/28 09:07:25;;;;;;;5.75;1.77;;;;;;;14.52;52.18;100759.69;5039420;28;20898;-65
2023/03/28 09:10:02;;;;;;;6.78;1.70;;;;;;;14.64;51.89;100755.09;5039188;28;20030;-66
2023/03/28 09:12:52;;;;;;;6.65;1.77;;;;;;;14.73;51.61;100755.91;5039224;28;20025;-65
2023/03/28 09:15:23;;;;;;;5.67;1.60;;;;;;;14.84;50.72;100750.44;5039464;28;20539;-65
2023/03/28 09:18:04;;;;;;;7.32;1.65;;;;;;;14.89;51.33;100752.16;5039372;28;20029;-66
2023/03/28 09:20:56;;;;;;;5.72;1.70;;;;;;;15.14;50.56;100757.09;5039362;28;20029;-66
2023/03/28 09:23:34;;;;;;;5.78;1.55;;;;;;;15.35;50.50;100760.31;5054588;28;20029;-66
2023/03/28 09:26:21;;;;;;;7.78;1.60;;;;;;;15.49;50.27;100754.78;5039244;28;20033;-65
2023/03/28 09:28:52;;;;;;;5.03;1.53;;;;;;;15.69;50.18;100751.78;5037686;28;20030;-66
2023/03/28 09:31:22;;;;;;;5.05;1.85;;;;;;;15.85;49.52;100754.16;5039029;28;20033;-66
2023/03/28 09:33:49;;;;;;;5.63;1.60;;;;;;;15.84;49.36;100742.66;5037986;28;20401;-66
2023/03/28 09:36:21;;;;;;;5.68;1.50;;;;;;;15.92;49.48;100745.22;5038844;28;20030;-65
2023/03/28 09:38:52;;;;;;;5.72;1.42;;;;;;;15.95;48.33;100731.00;5038842;28;20032;-66
2023/03/28 09:41:36;;;;;;;7.73;1.90;;;;;;;15.93;48.58;100726.59;5038966;28;20028;-66
2023/03/28 09:44:03;;;;;;;4.30;1.35;;;;;;;16.14;48.51;100712.91;5038851;28;20052;-66
2023/03/28 09:46:31;;;;;;;5.32;1.48;;;;;;;16.23;47.65;100699.44;5039164;28;20089;-66
2023/03/28 09:48:57;;;;;;;4.38;1.30;;;;;;;16.38;47.53;100681.44;5038757;28;20033;-66
2023/03/28 09:51:23;;;;;;;6.23;1.40;;;;;;;16.44;47.38;100674.22;5038629;28;20045;-66
2023/03/28 09:53:48;;;;;;;4.90;1.23;;;;;;;16.50;47.51;100681.16;5038694;28;20108;-66
2023/03/28 09:56:34;;;;;;;4.87;1.50;;;;;;;16.52;45.97;100682.03;5038868;28;20095;-66
2023/03/28 09:59:03;;;;;;;5.88;1.35;;;;;;;16.55;46.37;100673.97;5038689;28;20030;-66
2023/03/28 10:01:45;;;;;;;5.53;1.30;;;;;;;16.54;46.05;100677.53;5038706;28;20375;-66
2023/03/28 10:04:16;;;;;;;5.57;1.33;;;;;;;16.59;45.38;100662.34;5038641;28;20109;-66
2023/03/28 10:06:43;;;;;;;4.80;1.20;;;;;;;16.71;45.92;100665.63;5038418;28;20036;-66
2023/03/28 10:09:08;;;;;;;5.22;1.00;;;;;;;16.80;44.98;100665.44;5038144;28;20028;-66
2023/03/28 10:11:47;;;;;;;3.97;1.00;;;;;;;16.81;44.71;100656.53;5038318;28;20049;-66
2023/03/28 10:14:28;;;;;;;5.85;0.90;;;;;;;16.83;44.29;100665.34;5038695;28;20032;-66
2023/03/28 10:17:00;;;;;;;4.40;0.70;;;;;;;16.83;43.40;100670.66;5038169;28;20082;-66
2023/03/28 10:19:32;;;;;;;3.58;0.70;;;;;;;16.74;42.04;100666.44;5053219;28;20036;-66
2023/03/28 10:22:05;;;;;;;3.10;0.60;;;;;;;16.89;42.16;100678.50;5058185;28;20032;-66
2023/03/28 10:24:31;;;;;;;6.40;0.90;;;;;;;16.91;43.18;100671.34;5048277;28;20026;-66
2023/03/28 10:27:06;;;;;;;3.72;0.80;;;;;;;16.90;42.97;100666.94;5038135;28;20440;-66
2023/03/28 10:29:32;;;;;;;2.70;0.65;;;;;;;17.03;41.82;100666.69;5037737;28;20025;-66
2023/03/28 10:31:58;;;;;;;3.47;0.60;;;;;;;17.14;41.64;100659.31;5038145;28;20024;-66
2023/03/28 10:34:28;;;;;;;4.27;0.67;;;;;;;17.20;41.80;100664.47;5037860;28;20034;-66
2023/03/28 10:36:54;;;;;;;5.22;1.00;;;;;;;17.41;41.54;100662.16;5037799;28;20025;-66
2023/03/28 10:39:25;;;;;;;7.27;1.07;;;;;;;17.56;41.37;100665.34;5037826;28;20075;-66
2023/03/28 10:41:52;;;;;;;4.90;0.75;;;;;;;17.68;40.99;100670.34;5037846;28;20021;-66
2023/03/28 10:44:36;;;;;;;4.43;0.88;;;;;;;17.72;41.43;100665.81;5069870;28;20085;-66
2023/03/28 10:47:06;;;;;;;4.38;0.65;;;;;;;17.92;41.03;100657.25;5037616;28;20018;-66
2023/03/28 10:49:51;;;;;;;4.18;0.60;;;;;;;18.04;40.79;100651.63;5037843;28;20033;-66
2023/03/28 10:52:47;;;;;;;3.70;0.57;;;;;;;17.94;39.68;100650.97;5037237;28;20029;-66
2023/03/28 10:55:18;;;;;;;3.33;0.60;;;;;;;18.22;40.17;100650.19;5037800;28;20025;-66
2023/03/28 10:57:55;;;;;;;3.58;0.80;;;;;;;18.25;39.12;100653.69;5037794;28;20037;-66
2023/03/28 11:00:30;;;;;;;6.25;0.73;;;;;;;18.27;39.64;100650.06;5036174;28;20498;-66
2023/03/28 11:03:04;;;;;;;5.13;0.63;;;;;;;18.28;39.50;100643.81;5037295;28;20570;-66
2023/03/28 11:06:03;;;;;;;6.33;0.80;;;;;;;18.35;39.63;100647.16;5037494;28;20034;-66
2023/03/28 11:08:49;;;;;;;4.80;0.80;;;;;;;18.22;38.02;100649.34;5037163;28;20029;-66
2023/03/28 11:11:45;;;;;;;4.43;0.85;;;;;;;18.47;39.32;100643.25;5036978;28;20064;-66
2023/03/28 11:14:32;;;;;;;7.25;1.05;;;;;;;18.55;39.43;100645.66;5049722;28;20033;-66
2023/03/28 11:17:19;;;;;;;4.72;0.80;;;;;;;18.72;38.17;100637.16;5057226;28;20588;-66
2023/03/28 11:20:05;;;;;;;3.77;0.60;;;;;;;18.84;38.64;100634.06;5055751;28;20440;-66
2023/03/28 11:23:05;;;;;;;3.47;0.60;;;;;;;18.98;37.84;100632.75;5055613;28;20086;-66
2023/03/28 11:25:40;;;;;;;3.20;0.65;;;;;;;19.24;37.83;100628.34;5039783;28;20137;-66
2023/03/28 11:28:43;;;;;;;3.08;0.50;;;;;;;19.22;37.64;100628.41;5036861;28;20029;-66
2023/03/28 11:31:19;;;;;;;3.50;0.55;;;;;;;19.48;38.29;100610.59;5052551;28;20509;-66
2023/03/28 11:34:03;;;;;;;3.70;0.80;;;;;;;19.65;37.63;100599.28;5057112;28;20025;-66
2023/03/28 11:36:52;;;;;;;3.58;0.70;;;;;;;19.60;35.85;100594.13;5055400;28;20097;-66
2023/03/28 11:39:26;;;;;;;3.30;0.80;;;;;;;19.67;36.93;100584.09;5056652;28;20142;-66
2023/03/28 11:41:55;;;;;;;5.00;0.70;;;;;;;19.70;37.05;100581.31;5045918;28;20028;-66
2023/03/28 11:44:36;;;;;;;4.85;0.70;;;;;;;19.76;37.21;100573.06;5037136;28;20033;-66